Terminal Aerodrome Forecast
Issued by NWS

Home | Current Version | Previous Version | Text Only | Print | Product List | Glossary On
Versions: 1 2 3 4 5 6 7 8 9 10 11 12 13 14 15 16 17 18 19
000
FTUS42 KJAX 300529
TAFCRG
TAF
KCRG 300529Z 3006/3106 VRB06KT 6SM -RA BR SCT015 BKN030 OVC060
     FM301000 VRB06KT P6SM VCSH SCT015 SCT030 BKN100
     FM301600 10012KT P6SM VCTS SCT020 BKN035CB
     FM310000 12008KT P6SM VCSH SCT015 SCT030 BKN100=

USA.gov is the U.S. government's official web portal to all federal, state and local government web resources and services.